createdAt,value
2022-12-11T00:00:25.895Z,15.98
2022-12-11T00:02:52.604Z,36.30
2022-12-11T00:05:19.333Z,26.95
2022-12-11T00:07:46.131Z,19.48
2022-12-11T00:10:12.871Z,26.60
2022-12-11T00:12:39.550Z,23.30
2022-12-11T00:15:06.762Z,17.63
2022-12-11T00:17:33.489Z,32.55
2022-12-11T00:20:00.191Z,22.83
2022-12-11T00:22:27.119Z,23.25
2022-12-11T00:24:53.808Z,12.32
2022-12-11T00:27:20.482Z,14.80
2022-12-11T00:29:47.182Z,30.50
2022-12-11T00:32:13.917Z,13.65
2022-12-11T00:34:40.646Z,23.02
2022-12-11T00:37:07.391Z,14.00
2022-12-11T00:39:34.147Z,24.38
2022-12-11T00:42:00.815Z,27.30
2022-12-11T00:44:27.490Z,28.15
2022-12-11T00:46:54.157Z,24.58
2022-12-11T00:49:20.848Z,13.13
2022-12-11T00:51:47.532Z,20.88
2022-12-11T00:54:14.227Z,24.10
2022-12-11T00:56:40.904Z,23.98
2022-12-11T00:59:07.643Z,21.10
2022-12-11T01:01:34.360Z,74.40
2022-12-11T01:04:01.114Z,23.77
2022-12-11T01:06:28.033Z,11.93
2022-12-11T01:08:55.096Z,27.23
2022-12-11T01:11:21.850Z,26.98
2022-12-11T01:13:48.545Z,13.85
2022-12-11T01:16:15.732Z,20.63
2022-12-11T01:18:42.606Z,32.85
2022-12-11T01:21:10.781Z,31.10
2022-12-11T01:23:37.469Z,14.55
2022-12-11T01:26:08.437Z,15.27
2022-12-11T01:28:35.242Z,20.23
2022-12-11T01:31:01.997Z,24.98
2022-12-11T01:33:28.786Z,22.45
2022-12-11T01:35:55.493Z,18.42
2022-12-11T01:38:22.193Z,9.98
2022-12-11T01:40:49.598Z,20.70
2022-12-11T01:43:16.329Z,21.70
2022-12-11T01:45:44.324Z,22.73
2022-12-11T01:48:16.251Z,20.90
2022-12-11T01:51:06.356Z,10.57
2022-12-11T01:53:39.086Z,32.25
2022-12-11T01:56:06.394Z,15.98
2022-12-11T01:58:35.385Z,11.57
2022-12-11T02:01:02.137Z,18.55
2022-12-11T02:03:28.897Z,9.50
2022-12-11T02:06:01.843Z,18.80
2022-12-11T02:11:12.960Z,21.08
2022-12-11T02:14:08.895Z,24.02
2022-12-11T02:16:52.289Z,21.05
2022-12-11T02:19:45.174Z,21.90
2022-12-11T02:22:14.462Z,23.50
2022-12-11T02:25:16.956Z,10.13
2022-12-11T02:27:49.063Z,26.65
2022-12-11T02:30:15.984Z,21.02
2022-12-11T02:32:46.648Z,28.40
2022-12-11T02:35:22.738Z,24.52
2022-12-11T02:37:52.026Z,30.85
2022-12-11T02:40:21.755Z,14.45
2022-12-11T02:42:48.489Z,12.40
2022-12-11T02:45:15.243Z,13.07
2022-12-11T02:47:41.966Z,8.60
2022-12-11T02:50:10.498Z,31.73
2022-12-11T02:52:37.217Z,13.43
2022-12-11T02:55:04.150Z,15.65
2022-12-11T02:57:38.652Z,18.73
2022-12-11T03:00:06.192Z,9.20
2022-12-11T03:02:32.942Z,20.60
2022-12-11T03:04:59.783Z,15.52
2022-12-11T03:07:28.884Z,26.50
2022-12-11T03:09:55.588Z,19.42
2022-12-11T03:12:28.527Z,18.75
2022-12-11T03:17:27.365Z,25.55
2022-12-11T03:20:12.908Z,21.52
2022-12-11T03:22:46.230Z,21.35
2022-12-11T03:25:19.969Z,20.80
2022-12-11T03:28:09.269Z,21.20
2022-12-11T03:30:36.293Z,22.40
2022-12-11T03:33:09.190Z,21.45
2022-12-11T03:38:06.653Z,18.08
2022-12-11T03:40:33.584Z,12.13
2022-12-11T03:43:00.326Z,26.00
2022-12-11T03:45:27.205Z,26.75
2022-12-11T03:47:54.030Z,9.52
2022-12-11T03:50:20.791Z,20.15
2022-12-11T03:52:48.084Z,11.38
2022-12-11T03:55:16.252Z,16.45
2022-12-11T03:57:43.017Z,31.55
2022-12-11T04:00:14.854Z,14.45
2022-12-11T04:02:41.823Z,11.25
2022-12-11T04:05:09.262Z,10.50
2022-12-11T04:07:36.386Z,23.05
2022-12-11T04:10:04.011Z,14.38
2022-12-11T04:12:30.713Z,11.02
2022-12-11T04:14:57.384Z,22.95
2022-12-11T04:17:24.088Z,20.23
2022-12-11T04:19:50.778Z,23.50
2022-12-11T04:22:18.176Z,15.90
2022-12-11T04:24:44.864Z,18.50
2022-12-11T04:27:11.530Z,14.88
2022-12-11T04:29:38.255Z,18.35
2022-12-11T04:32:05.061Z,19.08
2022-12-11T04:34:31.762Z,25.50
2022-12-11T04:36:58.462Z,17.33
2022-12-11T04:39:25.166Z,20.23
2022-12-11T04:41:51.859Z,21.63
2022-12-11T04:44:18.533Z,8.82
2022-12-11T04:46:45.341Z,18.17
2022-12-11T04:49:12.113Z,29.50
2022-12-11T04:51:38.799Z,21.95
2022-12-11T04:54:05.533Z,17.73
2022-12-11T04:56:32.263Z,5.35
2022-12-11T04:58:58.932Z,13.23
2022-12-11T05:01:25.639Z,17.52
2022-12-11T05:03:52.384Z,31.17
2022-12-11T05:06:19.057Z,14.35
2022-12-11T05:08:45.854Z,11.57
2022-12-11T05:11:14.179Z,15.40
2022-12-11T05:13:41.183Z,11.25
2022-12-11T05:16:08.842Z,34.60
2022-12-11T05:18:35.645Z,22.70
2022-12-11T05:21:06.052Z,10.43
2022-12-11T05:23:32.794Z,17.88
2022-12-11T05:26:01.036Z,22.58
2022-12-11T05:28:28.774Z,21.83
2022-12-11T05:30:59.621Z,18.73
2022-12-11T05:33:26.432Z,7.13
2022-12-11T05:35:53.155Z,14.45
2022-12-11T05:38:20.075Z,6.97
2022-12-11T05:40:56.154Z,22.42
2022-12-11T05:43:22.883Z,16.38
2022-12-11T05:45:49.559Z,29.80
2022-12-11T05:48:16.336Z,11.40
2022-12-11T05:50:43.033Z,14.48
2022-12-11T05:53:09.758Z,9.23
2022-12-11T05:55:36.553Z,27.52
2022-12-11T05:58:03.243Z,20.05
2022-12-11T06:00:34.460Z,11.65
2022-12-11T06:03:02.805Z,15.20
2022-12-11T06:05:29.605Z,20.92
2022-12-11T06:07:56.385Z,23.27
2022-12-11T06:10:23.083Z,22.13
2022-12-11T06:12:49.815Z,9.05
2022-12-11T06:15:16.553Z,24.30
2022-12-11T06:17:43.257Z,12.93
2022-12-11T06:20:10.228Z,10.80
2022-12-11T06:22:36.941Z,26.75
2022-12-11T06:25:03.938Z,6.18
2022-12-11T06:27:30.623Z,15.63
2022-12-11T06:29:57.331Z,15.98
2022-12-11T06:32:24.048Z,16.20
2022-12-11T06:34:50.777Z,21.40
2022-12-11T06:37:17.464Z,17.92
2022-12-11T06:39:44.201Z,12.35
2022-12-11T06:42:10.884Z,6.97
2022-12-11T06:44:37.531Z,23.58
2022-12-11T06:47:04.298Z,24.30
2022-12-11T06:49:31.070Z,10.65
2022-12-11T06:51:57.777Z,15.25
2022-12-11T06:54:27.783Z,26.83
2022-12-11T06:56:54.497Z,6.68
2022-12-11T06:59:21.174Z,19.85
2022-12-11T07:01:47.971Z,16.20
2022-12-11T07:04:14.706Z,13.48
2022-12-11T07:06:41.397Z,23.33
2022-12-11T07:09:08.061Z,19.88
2022-12-11T07:11:34.778Z,23.33
2022-12-11T07:14:01.606Z,27.25
2022-12-11T07:16:28.350Z,23.75
2022-12-11T07:18:55.000Z,33.33
2022-12-11T07:21:21.684Z,29.67
2022-12-11T07:23:48.918Z,50.65
2022-12-11T07:26:17.452Z,31.02
2022-12-11T07:28:44.305Z,37.15
2022-12-11T07:31:16.339Z,39.13
2022-12-11T07:33:43.150Z,34.72
2022-12-11T07:36:11.348Z,23.15
2022-12-11T07:38:38.047Z,27.80
2022-12-11T07:41:06.101Z,27.50
2022-12-11T07:43:33.583Z,18.92
2022-12-11T07:46:04.939Z,45.85
2022-12-11T07:48:31.785Z,32.17
2022-12-11T07:51:17.364Z,15.93
2022-12-11T07:53:45.036Z,27.73
2022-12-11T07:56:11.852Z,31.58
2022-12-11T07:58:38.555Z,20.23
2022-12-11T08:01:06.444Z,19.42
2022-12-11T08:03:33.163Z,24.15
2022-12-11T08:05:59.891Z,29.00
2022-12-11T08:08:26.632Z,30.15
2022-12-11T08:10:53.392Z,22.67
2022-12-11T08:13:20.098Z,26.35
2022-12-11T08:15:46.776Z,27.30
2022-12-11T08:18:13.475Z,21.50
2022-12-11T08:20:40.171Z,51.35
2022-12-11T08:23:06.878Z,18.80
2022-12-11T08:25:33.554Z,20.38
2022-12-11T08:28:00.257Z,30.35
2022-12-11T08:30:27.074Z,50.13
2022-12-11T08:32:53.847Z,31.20
2022-12-11T08:35:20.560Z,43.17
2022-12-11T08:37:47.224Z,25.25
2022-12-11T08:40:13.922Z,28.73
2022-12-11T08:42:40.586Z,55.95
2022-12-11T08:45:07.974Z,43.60
2022-12-11T08:47:34.834Z,21.45
2022-12-11T08:50:01.618Z,25.55
2022-12-11T08:52:28.351Z,35.22
2022-12-11T08:54:55.236Z,38.15
2022-12-11T08:57:22.017Z,47.00
2022-12-11T08:59:48.684Z,37.47
2022-12-11T09:02:15.432Z,37.88
2022-12-11T09:04:42.086Z,33.67
2022-12-11T09:07:08.820Z,27.65
2022-12-11T09:09:35.508Z,17.70
2022-12-11T09:12:02.251Z,33.30
2022-12-11T09:14:28.919Z,18.70
2022-12-11T09:16:55.683Z,16.90
2022-12-11T09:19:22.401Z,28.23
2022-12-11T09:21:49.093Z,26.65
2022-12-11T09:24:15.763Z,33.90
2022-12-11T09:26:42.495Z,23.38
2022-12-11T09:29:10.115Z,24.80
2022-12-11T09:31:37.039Z,26.65
2022-12-11T09:34:07.952Z,47.78
2022-12-11T09:36:34.983Z,41.97
2022-12-11T09:39:02.862Z,24.45
2022-12-11T09:42:00.371Z,32.13
2022-12-11T09:44:43.516Z,43.13
2022-12-11T09:49:43.661Z,39.03
2022-12-11T09:52:12.156Z,28.15
2022-12-11T09:54:43.767Z,44.97
2022-12-11T09:57:52.061Z,28.30
2022-12-11T10:00:47.106Z,29.65
2022-12-11T10:03:32.149Z,33.13
2022-12-11T10:06:42.163Z,27.20
2022-12-11T10:10:10.356Z,24.70
2022-12-11T10:12:51.839Z,27.33
2022-12-11T10:15:41.936Z,33.10
2022-12-11T10:18:13.590Z,32.42
2022-12-11T10:20:40.285Z,14.75
2022-12-11T10:23:08.212Z,17.45
2022-12-11T10:25:42.578Z,24.42
2022-12-11T10:28:14.342Z,24.55
2022-12-11T10:31:10.776Z,26.63
2022-12-11T10:33:41.862Z,42.35
2022-12-11T10:36:08.701Z,27.92
2022-12-11T10:38:40.819Z,69.95
2022-12-11T10:41:12.771Z,43.03
2022-12-11T10:43:44.364Z,89.20
2022-12-11T10:46:24.844Z,84.05
2022-12-11T10:48:53.764Z,60.00
2022-12-11T10:51:22.256Z,104.10
2022-12-11T10:53:58.715Z,72.03
2022-12-11T10:56:28.373Z,82.88
2022-12-11T10:58:55.202Z,53.53
2022-12-11T11:01:23.362Z,60.30
2022-12-11T11:04:06.588Z,68.03
2022-12-11T11:09:00.825Z,77.15
2022-12-11T11:11:37.594Z,98.70
2022-12-11T11:14:16.870Z,78.53
2022-12-11T11:16:45.571Z,67.28
2022-12-11T11:19:32.676Z,82.82
2022-12-11T11:22:13.933Z,77.90
2022-12-11T11:25:00.974Z,70.25
2022-12-11T11:27:36.904Z,70.70
2022-12-11T11:30:17.067Z,69.15
2022-12-11T11:32:43.826Z,87.43
2022-12-11T11:35:13.732Z,77.47
2022-12-11T11:37:41.851Z,113.57
2022-12-11T11:40:12.448Z,116.85
2022-12-11T11:42:39.115Z,104.10
2022-12-11T11:45:09.825Z,113.03
2022-12-11T11:47:39.987Z,105.13
2022-12-11T11:50:12.900Z,84.88
2022-12-11T11:55:22.152Z,74.70
2022-12-11T11:58:04.928Z,77.13
2022-12-11T12:00:33.849Z,83.45
2022-12-11T12:03:02.479Z,85.03
2022-12-11T12:05:54.122Z,75.18
2022-12-11T12:08:46.242Z,43.85
2022-12-11T12:11:23.593Z,34.38
2022-12-11T12:14:22.721Z,26.23
2022-12-11T12:17:37.258Z,37.13
2022-12-11T12:20:28.366Z,27.23
2022-12-11T12:22:58.102Z,30.60
2022-12-11T12:25:25.041Z,27.55
2022-12-11T12:28:15.539Z,26.27
2022-12-11T12:31:24.334Z,23.17
2022-12-11T12:34:02.765Z,19.45
2022-12-11T12:36:55.862Z,22.75
2022-12-11T12:39:25.413Z,31.80
2022-12-11T12:42:07.043Z,18.27
2022-12-11T12:45:04.115Z,17.33
2022-12-11T12:47:32.425Z,18.38
2022-12-11T12:49:59.262Z,17.55
2022-12-11T12:52:46.188Z,17.25
2022-12-11T12:55:13.194Z,35.85
2022-12-11T12:57:57.162Z,37.90
2022-12-11T13:00:27.827Z,20.55
2022-12-11T13:02:54.511Z,20.75
2022-12-11T13:05:26.443Z,21.40
2022-12-11T13:07:58.222Z,27.40
2022-12-11T13:10:30.001Z,22.17
2022-12-11T13:12:56.931Z,23.50
2022-12-11T13:15:34.825Z,13.27
2022-12-11T13:18:03.421Z,18.23
2022-12-11T13:20:32.048Z,16.35
2022-12-11T13:23:07.621Z,19.67
2022-12-11T13:25:49.917Z,22.73
2022-12-11T13:28:39.688Z,18.33
2022-12-11T13:31:15.844Z,29.85
2022-12-11T13:33:53.258Z,27.13
2022-12-11T13:36:24.294Z,34.25
2022-12-11T13:39:36.845Z,38.20
2022-12-11T13:42:09.965Z,29.67
2022-12-11T13:44:40.581Z,32.35
2022-12-11T13:47:11.163Z,32.92
2022-12-11T13:49:39.841Z,53.88
2022-12-11T13:52:06.659Z,37.83
2022-12-11T13:54:35.238Z,36.42
2022-12-11T13:57:04.554Z,40.88
2022-12-11T13:59:36.200Z,40.10
2022-12-11T14:02:06.047Z,45.42
2022-12-11T14:04:33.145Z,46.13
2022-12-11T14:06:59.826Z,49.40
2022-12-11T14:09:26.863Z,61.50
2022-12-11T14:11:56.736Z,44.72
2022-12-11T14:14:25.134Z,42.58
2022-12-11T14:16:52.078Z,36.30
2022-12-11T14:19:20.179Z,46.75
2022-12-11T14:22:01.292Z,43.05
2022-12-11T14:24:29.025Z,37.72
2022-12-11T14:26:56.040Z,32.72
2022-12-11T14:29:29.680Z,32.13
2022-12-11T14:31:57.209Z,30.75
2022-12-11T14:34:32.531Z,27.30
2022-12-11T14:36:59.324Z,34.60
2022-12-11T14:39:41.254Z,32.28
2022-12-11T14:42:11.809Z,36.53
2022-12-11T14:44:47.535Z,34.72
2022-12-11T14:47:25.632Z,29.60
2022-12-11T14:50:15.434Z,22.65
2022-12-11T14:52:48.192Z,41.78
2022-12-11T14:55:14.955Z,31.75
2022-12-11T14:57:43.459Z,44.72
2022-12-11T15:00:21.935Z,34.50
2022-12-11T15:02:58.058Z,39.78
2022-12-11T15:05:24.812Z,35.83
2022-12-11T15:08:02.570Z,46.67
2022-12-11T15:10:36.896Z,52.42
2022-12-11T15:13:06.942Z,43.22
2022-12-11T15:15:45.527Z,41.72
2022-12-11T15:18:28.370Z,41.97
2022-12-11T15:20:57.737Z,43.78
2022-12-11T15:23:24.500Z,65.60
2022-12-11T15:25:52.775Z,43.35
2022-12-11T15:28:35.689Z,60.00
2022-12-11T15:31:07.547Z,49.00
2022-12-11T15:33:44.364Z,50.58
2022-12-11T15:36:30.241Z,52.55
2022-12-11T15:38:57.092Z,59.42
2022-12-11T15:41:24.796Z,51.08
2022-12-11T15:43:58.107Z,54.45
2022-12-11T15:46:25.498Z,45.75
2022-12-11T15:48:52.318Z,51.78
2022-12-11T15:51:19.081Z,66.82
2022-12-11T15:53:45.836Z,47.13
2022-12-11T15:56:16.083Z,48.25
2022-12-11T15:58:44.373Z,59.22
2022-12-11T16:01:11.159Z,49.03
2022-12-11T16:03:37.976Z,56.70
2022-12-11T16:06:04.762Z,39.72
2022-12-11T16:08:31.866Z,57.22
2022-12-11T16:10:58.545Z,44.97
2022-12-11T16:13:25.195Z,66.03
2022-12-11T16:15:52.099Z,63.97
2022-12-11T16:18:20.945Z,64.60
2022-12-11T16:20:47.776Z,57.15
2022-12-11T16:23:14.629Z,73.70
2022-12-11T16:25:42.355Z,56.35
2022-12-11T16:28:09.308Z,62.33
2022-12-11T16:30:36.626Z,60.58
2022-12-11T16:33:10.292Z,56.75
2022-12-11T16:35:39.121Z,61.42
2022-12-11T16:38:05.852Z,71.00
2022-12-11T16:40:32.640Z,62.10
2022-12-11T16:42:59.331Z,75.07
2022-12-11T16:45:26.260Z,72.65
2022-12-11T16:47:53.095Z,76.43
2022-12-11T16:50:19.892Z,81.93
2022-12-11T16:52:46.555Z,69.47
2022-12-11T16:55:13.774Z,90.32
2022-12-11T16:57:41.112Z,105.28
2022-12-11T17:00:08.811Z,77.72
2022-12-11T17:02:36.086Z,62.97
2022-12-11T17:05:02.913Z,74.93
2022-12-11T17:07:30.907Z,67.82
2022-12-11T17:09:57.681Z,56.80
2022-12-11T17:12:24.380Z,56.72
2022-12-11T17:14:51.077Z,47.00
2022-12-11T17:17:17.783Z,47.30
2022-12-11T17:19:44.682Z,43.67
2022-12-11T17:22:11.391Z,51.05
2022-12-11T17:24:38.510Z,47.92
2022-12-11T17:27:05.201Z,50.92
2022-12-11T17:29:32.017Z,42.15
2022-12-11T17:31:58.705Z,44.25
2022-12-11T17:34:25.402Z,55.53
2022-12-11T17:36:52.071Z,46.42
2022-12-11T17:39:18.755Z,46.22
2022-12-11T17:41:45.424Z,43.72
2022-12-11T17:44:12.115Z,44.85
2022-12-11T17:46:38.843Z,54.00
2022-12-11T17:49:05.728Z,49.97
2022-12-11T17:51:32.426Z,60.30
2022-12-11T17:53:59.181Z,44.55
2022-12-11T17:56:26.003Z,53.05
2022-12-11T17:58:52.677Z,43.70
2022-12-11T18:01:19.572Z,47.38
2022-12-11T18:03:46.455Z,41.03
2022-12-11T18:06:14.490Z,35.00
2022-12-11T18:08:41.384Z,43.70
2022-12-11T18:11:10.216Z,32.85
2022-12-11T18:13:36.882Z,46.05
2022-12-11T18:16:05.718Z,40.97
2022-12-11T18:18:32.457Z,45.63
2022-12-11T18:20:59.311Z,50.85
2022-12-11T18:23:26.049Z,41.58
2022-12-11T18:25:53.024Z,46.17
2022-12-11T18:28:19.753Z,55.53
2022-12-11T18:30:46.536Z,50.22
2022-12-11T18:33:13.234Z,44.40
2022-12-11T18:35:40.881Z,38.03
2022-12-11T18:38:07.718Z,44.33
2022-12-11T18:40:34.522Z,45.00
2022-12-11T18:43:01.217Z,58.03
2022-12-11T18:45:27.918Z,35.38
2022-12-11T18:47:54.591Z,38.85
2022-12-11T18:50:21.276Z,40.70
2022-12-11T18:52:47.964Z,34.33
2022-12-11T18:55:14.848Z,36.95
2022-12-11T18:57:41.776Z,28.48
2022-12-11T19:00:09.062Z,40.97
2022-12-11T19:02:35.818Z,48.50
2022-12-11T19:05:02.508Z,32.05
2022-12-11T19:07:29.223Z,31.20
2022-12-11T19:09:55.920Z,35.03
2022-12-11T19:12:22.624Z,34.58
2022-12-11T19:14:49.338Z,29.02
2022-12-11T19:17:16.075Z,28.73
2022-12-11T19:19:42.746Z,39.97
2022-12-11T19:22:09.457Z,30.85
2022-12-11T19:24:36.209Z,30.08
2022-12-11T19:27:05.309Z,36.45
2022-12-11T19:29:35.359Z,39.22
2022-12-11T19:32:02.282Z,31.90
2022-12-11T19:34:30.050Z,27.45
2022-12-11T19:36:56.799Z,25.60
2022-12-11T19:39:23.517Z,25.65
2022-12-11T19:41:50.200Z,27.65
2022-12-11T19:44:16.888Z,25.38
2022-12-11T19:46:43.660Z,21.65
2022-12-11T19:49:10.876Z,20.35
2022-12-11T19:51:39.003Z,28.35
2022-12-11T19:54:07.100Z,21.35
2022-12-11T19:56:34.213Z,20.40
2022-12-11T19:59:05.467Z,19.27
2022-12-11T20:01:33.014Z,21.35
2022-12-11T20:04:01.320Z,21.75
2022-12-11T20:06:32.042Z,14.48
2022-12-11T20:08:59.052Z,18.25
2022-12-11T20:11:25.924Z,21.05
2022-12-11T20:13:52.615Z,21.17
2022-12-11T20:16:28.880Z,21.73
2022-12-11T20:19:06.186Z,26.73
2022-12-11T20:21:32.848Z,22.08
2022-12-11T20:23:59.728Z,14.70
2022-12-11T20:26:26.401Z,33.55
2022-12-11T20:28:53.142Z,20.83
2022-12-11T20:31:23.707Z,19.40
2022-12-11T20:33:50.875Z,19.55
2022-12-11T20:36:18.251Z,19.60
2022-12-11T20:38:44.947Z,17.10
2022-12-11T20:41:12.905Z,21.13
2022-12-11T20:43:39.802Z,16.38
2022-12-11T20:46:10.371Z,17.88
2022-12-11T20:48:37.352Z,26.05
2022-12-11T20:51:05.422Z,17.67
2022-12-11T20:53:32.082Z,19.17
2022-12-11T20:55:58.780Z,21.63
2022-12-11T20:58:25.438Z,15.60
2022-12-11T21:00:52.675Z,43.83
2022-12-11T21:03:19.380Z,22.20
2022-12-11T21:05:46.263Z,13.55
2022-12-11T21:08:13.021Z,29.35
2022-12-11T21:10:43.946Z,16.38
2022-12-11T21:13:10.907Z,18.83
2022-12-11T21:15:38.345Z,30.83
2022-12-11T21:18:05.715Z,17.30
2022-12-11T21:20:32.679Z,15.52
2022-12-11T21:22:59.365Z,12.25
2022-12-11T21:25:26.103Z,16.58
2022-12-11T21:27:52.801Z,17.08
2022-12-11T21:30:19.587Z,17.65
2022-12-11T21:32:46.402Z,18.67
2022-12-11T21:35:13.572Z,14.15
2022-12-11T21:37:40.425Z,20.00
2022-12-11T21:40:07.591Z,15.55
2022-12-11T21:42:34.277Z,17.50
2022-12-11T21:47:47.755Z,13.02
2022-12-11T21:50:14.707Z,20.08
2022-12-11T21:52:41.503Z,30.05
2022-12-11T21:55:08.345Z,14.95
2022-12-11T21:57:35.036Z,16.23
2022-12-11T22:00:01.750Z,14.60
2022-12-11T22:02:28.474Z,15.60
2022-12-11T22:04:55.192Z,17.20
2022-12-11T22:07:21.871Z,17.80
2022-12-11T22:09:48.560Z,22.20
2022-12-11T22:12:21.756Z,15.73
2022-12-11T22:14:48.692Z,18.48
2022-12-11T22:17:15.413Z,23.55
2022-12-11T22:19:42.091Z,22.80
2022-12-11T22:22:08.780Z,15.95
2022-12-11T22:24:35.515Z,20.90
2022-12-11T22:27:02.290Z,24.40
2022-12-11T22:29:29.064Z,38.92
2022-12-11T22:31:55.794Z,24.30
2022-12-11T22:34:22.493Z,18.33
2022-12-11T22:36:49.160Z,16.15
2022-12-11T22:39:15.843Z,15.50
2022-12-11T22:41:42.613Z,16.48
2022-12-11T22:44:14.054Z,22.50
2022-12-11T22:46:43.122Z,14.18
2022-12-11T22:49:13.482Z,14.98
2022-12-11T22:51:40.182Z,15.75
2022-12-11T22:54:06.856Z,12.98
2022-12-11T22:56:33.519Z,10.90
2022-12-11T22:59:00.199Z,14.65
2022-12-11T23:01:27.256Z,28.83
2022-12-11T23:03:54.035Z,22.25
2022-12-11T23:06:22.773Z,15.15
2022-12-11T23:08:49.559Z,12.27
2022-12-11T23:11:24.869Z,20.55
2022-12-11T23:13:51.991Z,17.00
2022-12-11T23:16:18.861Z,16.90
2022-12-11T23:18:45.597Z,20.10
2022-12-11T23:21:12.666Z,14.30
2022-12-11T23:23:39.423Z,22.00
2022-12-11T23:26:06.588Z,13.43
2022-12-11T23:28:33.285Z,13.30
2022-12-11T23:30:59.994Z,20.80
2022-12-11T23:33:26.707Z,11.48
2022-12-11T23:35:53.428Z,15.23
2022-12-11T23:38:20.110Z,13.90
2022-12-11T23:40:46.799Z,15.20
2022-12-11T23:43:13.470Z,12.15
2022-12-11T23:45:43.860Z,12.55
2022-12-11T23:48:11.046Z,14.75
2022-12-11T23:50:37.850Z,8.90
2022-12-11T23:53:04.525Z,11.82
2022-12-11T23:55:31.203Z,10.05
2022-12-11T23:57:57.891Z,13.48
